Aviation Digital Data Service (ADDS)

Output produced by METARs form (1808 UTC 01 September 2015)
found at http://www.aviationweather.gov/adds/metars/
 
KCRQ 011753Z AUTO 21007KT 10SM CLR 23/16 A2993 RMK AO2 SLP133 T02330156 10239 20206 50003
KCRQ 011653Z AUTO 16006KT 10SM CLR 23/15 A2994 RMK AO2 SLP135 T02280150
KCRQ 011619Z AUTO VRB04KT 10SM SCT025 22/15 A2993 RMK AO2 T02170150
KCRQ 011553Z AUTO 00000KT 10SM OVC024 21/15 A2993 RMK AO2 SLP132 T02110150
KCRQ 011453Z AUTO 12006KT 10SM OVC023 21/15 A2992 RMK AO2 SLP130 T02060150 53005
KCRQ 011736Z 0118/0218 16006KT P6SM SCT200 
     FM011900 21009KT P6SM FEW020 SCT200 
     FM020200 16004KT P6SM BKN020